Time;durP1;ratioP1;P1;durP2;ratioP2;P2;SDS_P1;SDS_P2;PMS_P1;PMS_P2;Temp;Humidity;BMP_temperature;BMP_pressure;BME280_temperature;BME280_humidity;BME280_pressure;Samples;Min_cycle;Max_cycle;Signal;HPM_P1;HPM_P2
2023/07/02 00:01:07;;;;;;;8.50;5.10;;;;;;;22.70;49.97;99560.22;123925;1099;104348;-80
2023/07/02 00:03:59;;;;;;;8.70;4.80;;;;;;;22.68;50.18;99558.54;123923;1099;104643;-79
2023/07/02 00:06:32;;;;;;;13.03;5.00;;;;;;;22.65;50.08;99556.81;123904;1099;104502;-78
2023/07/02 00:09:04;;;;;;;9.23;4.87;;;;;;;22.64;50.33;99551.52;123835;1099;104354;-78
2023/07/02 00:11:35;;;;;;;12.50;4.70;;;;;;;22.61;50.25;99561.39;123896;1099;104319;-79
2023/07/02 00:14:07;;;;;;;12.75;5.30;;;;;;;22.60;50.45;99562.30;123886;1099;104239;-79
2023/07/02 00:16:41;;;;;;;8.73;5.03;;;;;;;22.59;50.43;99554.32;124003;1099;104248;-79
2023/07/02 00:19:12;;;;;;;11.07;4.93;;;;;;;22.58;50.79;99549.91;123966;1099;104511;-80
2023/07/02 00:21:44;;;;;;;11.50;5.17;;;;;;;22.57;50.70;99549.02;123998;1099;104294;-80
2023/07/02 00:24:15;;;;;;;8.30;4.97;;;;;;;22.55;50.40;99550.87;124182;1098;104223;-80
2023/07/02 00:26:46;;;;;;;8.90;4.67;;;;;;;22.54;50.53;99545.56;124286;1099;104344;-80
2023/07/02 00:29:18;;;;;;;9.70;5.27;;;;;;;22.53;50.68;99549.15;123806;1099;104357;-81
2023/07/02 00:31:50;;;;;;;11.73;5.13;;;;;;;22.52;50.54;99555.44;123910;1099;104670;-78
2023/07/02 00:34:22;;;;;;;6.83;4.90;;;;;;;22.47;51.01;99539.53;123953;1099;104373;-78
2023/07/02 00:36:53;;;;;;;7.67;5.10;;;;;;;22.45;51.79;99546.70;123877;1098;104238;-79
2023/07/02 00:39:24;;;;;;;10.17;5.10;;;;;;;22.44;51.43;99537.81;124048;1099;104172;-79
2023/07/02 00:42:00;;;;;;;10.17;4.83;;;;;;;22.43;51.54;99537.85;123888;1099;104337;-80
2023/07/02 00:44:32;;;;;;;8.33;4.67;;;;;;;22.39;52.03;99539.74;123983;1099;104405;-80
2023/07/02 00:47:06;;;;;;;7.73;4.77;;;;;;;22.37;51.98;99536.22;123964;1099;104280;-78
2023/07/02 00:49:36;;;;;;;;;;;;;;;22.33;51.86;99529.23;123975;1099;104354;-78
2023/07/02 00:52:08;;;;;;;7.90;4.80;;;;;;;22.33;52.21;99534.57;123671;1099;104315;-78
2023/07/02 00:54:40;;;;;;;8.40;4.97;;;;;;;22.33;52.16;99531.00;123645;1099;104287;-79
2023/07/02 00:57:11;;;;;;;8.70;4.87;;;;;;;22.32;51.92;99535.48;123913;1099;104386;-79
2023/07/02 00:59:43;;;;;;;11.40;5.10;;;;;;;22.32;52.64;99526.59;123900;1099;104268;-80
2023/07/02 01:02:14;;;;;;;9.73;5.30;;;;;;;22.30;52.18;99534.66;123966;1099;104353;-79
2023/07/02 01:04:49;;;;;;;10.67;5.20;;;;;;;22.29;52.52;99532.86;123662;1099;104255;-79
2023/07/02 01:07:21;;;;;;;9.77;5.10;;;;;;;22.26;51.98;99533.81;123987;1099;104317;-81
2023/07/02 01:09:53;;;;;;;12.17;5.87;;;;;;;22.24;52.50;99538.33;123891;1099;104407;-80
2023/07/02 01:12:26;;;;;;;7.57;4.90;;;;;;;22.23;52.21;99533.89;124044;1098;104226;-79
2023/07/02 01:15:01;;;;;;;11.85;5.65;;;;;;;22.22;52.91;99533.94;123791;1099;104271;-80
2023/07/02 01:17:41;;;;;;;11.53;5.37;;;;;;;22.19;52.73;99526.91;123848;1099;104299;-80
2023/07/02 01:20:14;;;;;;;7.80;4.83;;;;;;;22.15;53.30;99530.56;123613;1099;104357;-80
2023/07/02 01:22:45;;;;;;;10.13;5.22;;;;;;;22.12;53.79;99535.99;123908;1099;104313;-79
2023/07/02 01:25:17;;;;;;;7.07;5.13;;;;;;;22.10;53.71;99532.50;123885;1099;104223;-79
2023/07/02 01:27:49;;;;;;;12.00;5.77;;;;;;;22.07;53.29;99522.76;124044;1099;104248;-79
2023/07/02 01:30:20;;;;;;;10.43;5.30;;;;;;;22.05;53.30;99529.08;123939;1099;104393;-79
2023/07/02 01:32:52;;;;;;;9.87;5.20;;;;;;;22.03;53.55;99523.78;124034;1099;104354;-79
2023/07/02 01:35:23;;;;;;;8.23;5.10;;;;;;;22.02;53.89;99535.37;123951;1099;104507;-79
2023/07/02 01:37:54;;;;;;;13.00;5.50;;;;;;;22.01;53.97;99543.42;124005;1099;104306;-79
2023/07/02 01:40:25;;;;;;;7.70;5.00;;;;;;;21.97;53.97;99537.30;123933;1099;104245;-80
2023/07/02 01:42:57;;;;;;;7.50;5.57;;;;;;;21.96;54.49;99535.53;123708;1099;104252;-79
2023/07/02 01:45:28;;;;;;;10.57;5.17;;;;;;;21.95;54.59;99530.23;123893;1099;104266;-80
2023/07/02 01:47:59;;;;;;;11.30;5.50;;;;;;;21.93;54.60;99529.41;123953;1099;104344;-80
2023/07/02 01:50:30;;;;;;;12.83;5.60;;;;;;;21.89;54.02;99529.48;124030;1098;104453;-80
2023/07/02 01:53:02;;;;;;;8.80;5.20;;;;;;;21.87;54.43;99536.64;124024;1099;104265;-79
2023/07/02 01:55:33;;;;;;;10.60;5.20;;;;;;;21.85;54.54;99532.28;123905;1099;104264;-76
2023/07/02 01:58:04;;;;;;;9.73;5.53;;;;;;;21.84;55.28;99526.03;123621;1099;104221;-79
2023/07/02 02:00:36;;;;;;;9.17;5.73;;;;;;;21.83;55.25;99524.30;123545;1099;104430;-79
2023/07/02 02:03:10;;;;;;;10.13;5.50;;;;;;;21.82;54.60;99527.02;123899;1099;104271;-80
2023/07/02 02:05:42;;;;;;;9.40;5.50;;;;;;;21.81;55.26;99525.25;123744;1099;104441;-79
2023/07/02 02:08:13;;;;;;;9.53;5.90;;;;;;;21.80;55.58;99524.38;123888;1099;104278;-79
2023/07/02 02:10:44;;;;;;;11.10;5.17;;;;;;;21.80;55.28;99524.38;123979;1099;104246;-78
2023/07/02 02:13:16;;;;;;;9.10;5.50;;;;;;;21.80;55.72;99516.38;123720;1099;104411;-79
2023/07/02 02:15:47;;;;;;;12.60;5.90;;;;;;;21.79;55.78;99525.29;124030;1099;104242;-81
2023/07/02 02:18:19;;;;;;;12.50;5.83;;;;;;;21.77;55.66;99527.13;124155;1099;104225;-80
2023/07/02 02:20:50;;;;;;;9.80;5.70;;;;;;;21.75;55.47;99526.27;123904;1099;104268;-80
2023/07/02 02:23:22;;;;;;;8.60;5.43;;;;;;;21.73;55.56;99522.77;123939;1099;104294;-79
2023/07/02 02:25:53;;;;;;;9.87;5.87;;;;;;;21.72;56.27;99518.34;124055;1099;104252;-81
2023/07/02 02:28:24;;;;;;;10.43;6.00;;;;;;;21.71;55.87;99522.81;124019;1099;104267;-79
2023/07/02 02:30:55;;;;;;;13.00;6.03;;;;;;;21.71;55.48;99524.62;123928;1099;104223;-78
2023/07/02 02:33:27;;;;;;;9.13;6.13;;;;;;;21.70;56.62;99518.38;123980;1099;104265;-78
2023/07/02 02:35:59;;;;;;;10.17;5.60;;;;;;;21.71;56.08;99514.80;123788;1099;104277;-78
2023/07/02 02:38:31;;;;;;;9.47;5.60;;;;;;;21.74;56.71;99516.53;123699;1099;104357;-78
2023/07/02 02:41:02;;;;;;;16.53;5.53;;;;;;;21.73;56.40;99522.77;123488;1099;104271;-77
2023/07/02 02:43:37;;;;;;;12.80;6.00;;;;;;;21.67;56.08;99517.59;123873;1099;104230;-79
2023/07/02 02:46:09;;;;;;;11.93;5.67;;;;;;;21.62;56.29;99523.05;123909;1099;104281;-78
2023/07/02 02:48:40;;;;;;;9.77;5.30;;;;;;;21.56;57.23;99536.55;123981;1099;104264;-78
2023/07/02 02:51:11;;;;;;;8.03;5.47;;;;;;;21.52;57.38;99538.42;123814;1099;104392;-80
2023/07/02 02:53:43;;;;;;;12.87;5.70;;;;;;;21.52;57.27;99540.23;123980;1099;104245;-80
2023/07/02 02:56:14;;;;;;;8.80;6.13;;;;;;;21.51;56.83;99536.66;123908;1099;104344;-78
2023/07/02 02:58:46;;;;;;;10.57;5.97;;;;;;;21.51;56.78;99531.32;123611;1099;104341;-79
2023/07/02 03:01:18;;;;;;;10.10;6.00;;;;;;;21.50;57.82;99540.27;123730;1099;104434;-80
2023/07/02 03:03:49;;;;;;;11.55;6.40;;;;;;;21.46;57.22;99535.87;123490;1099;104341;-79
2023/07/02 03:06:20;;;;;;;10.80;5.53;;;;;;;21.44;57.65;99532.38;123839;1099;104616;-79
2023/07/02 03:08:51;;;;;;;11.25;6.05;;;;;;;21.44;57.63;99536.81;123848;1099;104338;-78
2023/07/02 03:11:23;;;;;;;11.53;5.93;;;;;;;21.45;57.94;99539.44;123934;1098;104214;-79
2023/07/02 03:13:54;;;;;;;11.60;5.83;;;;;;;21.47;58.27;99539.41;123931;1099;104369;-79
2023/07/02 03:16:25;;;;;;;10.57;6.13;;;;;;;21.48;58.20;99538.50;123775;1099;104414;-77
2023/07/02 03:18:56;;;;;;;10.47;5.93;;;;;;;21.52;58.50;99537.56;123716;1099;104299;-77
2023/07/02 03:21:29;;;;;;;10.67;5.80;;;;;;;21.54;58.83;99533.05;123705;1099;104268;-77
2023/07/02 03:24:01;;;;;;;14.00;6.43;;;;;;;21.59;58.53;99547.14;123734;1099;104222;-79
2023/07/02 03:26:33;;;;;;;11.57;6.10;;;;;;;21.62;58.39;99535.53;123811;1099;104341;-79
2023/07/02 03:29:04;;;;;;;15.47;6.30;;;;;;;21.64;59.01;99531.88;123911;1098;104393;-78
2023/07/02 03:31:35;;;;;;;10.00;6.40;;;;;;;21.65;59.06;99525.64;123850;1099;104245;-79
2023/07/02 03:34:10;;;;;;;11.70;6.17;;;;;;;21.69;58.07;99529.09;123671;1099;104238;-78
2023/07/02 03:36:42;;;;;;;16.33;6.27;;;;;;;21.71;58.55;99533.50;123781;1099;104294;-78
2023/07/02 03:39:13;;;;;;;13.47;6.03;;;;;;;21.76;58.68;99528.03;123825;1099;104239;-80
2023/07/02 03:41:44;;;;;;;10.77;6.50;;;;;;;21.79;58.72;99522.62;123681;1099;104501;-79
2023/07/02 03:44:15;;;;;;;12.63;6.47;;;;;;;21.82;58.37;99522.55;123978;1099;104248;-79
2023/07/02 03:46:47;;;;;;;12.20;6.00;;;;;;;21.87;59.21;99519.75;123806;1099;104242;-79
2023/07/02 03:49:18;;;;;;;9.23;6.20;;;;;;;21.92;59.23;99522.30;123783;1099;104300;-79
2023/07/02 03:51:50;;;;;;;10.73;5.93;;;;;;;21.96;58.55;99526.66;123886;1099;104356;-78
2023/07/02 03:54:21;;;;;;;14.13;6.30;;;;;;;22.00;59.09;99520.30;123358;1099;104338;-79
2023/07/02 03:56:52;;;;;;;14.60;6.03;;;;;;;22.05;58.84;99521.07;123760;1098;104345;-79
2023/07/02 03:59:23;;;;;;;11.90;5.83;;;;;;;22.11;58.66;99512.89;123833;1099;104274;-79
2023/07/02 04:01:55;;;;;;;11.90;5.70;;;;;;;22.16;59.30;99521.64;123770;1099;104310;-79
2023/07/02 04:04:26;;;;;;;12.03;6.80;;;;;;;22.19;58.80;99515.31;123759;1099;104265;-79
2023/07/02 04:06:57;;;;;;;10.03;5.50;;;;;;;22.23;59.12;99523.20;123915;1099;104415;-81
2023/07/02 04:09:29;;;;;;;9.40;5.40;;;;;;;22.27;58.92;99524.02;124040;1099;104242;-80
2023/07/02 04:12:00;;;;;;;8.00;5.40;;;;;;;22.30;58.98;99523.04;123889;1099;104300;-79
2023/07/02 04:14:31;;;;;;;8.83;5.33;;;;;;;22.33;58.33;99518.54;123789;1099;104309;-80
2023/07/02 04:17:04;;;;;;;10.13;5.40;;;;;;;22.36;58.59;99522.89;123769;1099;104277;-79
2023/07/02 04:19:35;;;;;;;8.90;5.20;;;;;;;22.38;59.07;99529.09;123539;1099;104306;-80
2023/07/02 04:22:07;;;;;;;10.23;5.50;;;;;;;22.41;58.67;99529.02;123627;1099;104325;-77
2023/07/02 04:24:38;;;;;;;11.70;5.50;;;;;;;22.43;58.74;99517.34;123689;1099;104313;-78
2023/07/02 04:27:10;;;;;;;8.93;5.07;;;;;;;22.50;58.37;99520.73;123794;1099;104325;-78
2023/07/02 04:29:42;;;;;;;11.13;5.40;;;;;;;22.52;58.94;99521.55;123726;1099;105268;-79
2023/07/02 04:32:13;;;;;;;9.67;4.60;;;;;;;22.54;57.87;99526.86;123767;1099;104473;-78
2023/07/02 04:34:44;;;;;;;9.90;5.30;;;;;;;22.55;57.94;99524.14;123575;1099;104246;-79
2023/07/02 04:37:16;;;;;;;8.00;5.10;;;;;;;22.58;58.34;99528.53;123600;1099;104328;-79
2023/07/02 04:39:47;;;;;;;9.37;5.40;;;;;;;22.63;57.65;99531.06;123901;1099;104217;-80
2023/07/02 04:42:18;;;;;;;8.83;4.93;;;;;;;22.65;58.02;99524.73;124046;1099;104291;-79
2023/07/02 04:44:49;;;;;;;9.10;4.87;;;;;;;22.68;58.10;99529.99;123861;1099;104341;-79
2023/07/02 04:47:21;;;;;;;8.57;4.90;;;;;;;22.71;57.84;99526.36;123911;1099;104364;-79
2023/07/02 04:49:52;;;;;;;10.53;4.93;;;;;;;22.75;57.87;99519.98;123905;1099;104290;-79
2023/07/02 04:52:23;;;;;;;7.93;4.93;;;;;;;22.80;57.58;99523.42;123824;1099;104341;-79
2023/07/02 04:54:55;;;;;;;9.30;4.77;;;;;;;22.86;57.58;99527.69;123822;1099;104465;-80
2023/07/02 04:57:28;;;;;;;7.57;5.00;;;;;;;22.92;57.56;99528.39;124068;1099;104409;-78
2023/07/02 04:59:59;;;;;;;12.17;5.00;;;;;;;22.97;57.55;99529.13;124207;1099;104370;-81
2023/07/02 05:02:31;;;;;;;8.73;4.43;;;;;;;23.03;57.41;99524.49;124143;1099;104287;-81
2023/07/02 05:05:02;;;;;;;8.50;4.90;;;;;;;23.05;57.52;99530.69;124146;1099;104198;-79
2023/07/02 05:07:34;;;;;;;7.33;4.83;;;;;;;23.10;57.11;99526.09;124035;1099;104315;-79
2023/07/02 05:10:06;;;;;;;9.57;5.07;;;;;;;23.15;57.38;99530.39;123799;1099;104379;-78
2023/07/02 05:12:37;;;;;;;10.47;4.83;;;;;;;23.21;56.92;99531.98;124021;1098;104402;-80
2023/07/02 05:15:11;;;;;;;8.40;4.90;;;;;;;23.28;56.97;99535.33;123847;1099;104270;-79
2023/07/02 05:17:43;;;;;;;6.77;4.70;;;;;;;23.28;57.02;99536.22;124003;1099;104278;-79
2023/07/02 05:20:15;;;;;;;9.17;4.63;;;;;;;23.30;57.07;99538.85;123908;1098;104695;-79
2023/07/02 05:22:46;;;;;;;7.30;4.90;;;;;;;23.33;56.84;99542.30;123870;1099;104399;-80
2023/07/02 05:25:17;;;;;;;8.20;4.83;;;;;;;23.38;56.95;99544.83;123778;1098;104280;-80
2023/07/02 05:27:48;;;;;;;9.00;4.70;;;;;;;23.44;56.64;99538.41;123792;1099;104307;-79
2023/07/02 05:30:20;;;;;;;7.40;4.70;;;;;;;23.48;56.41;99548.97;123738;1099;104319;-78
2023/07/02 05:32:51;;;;;;;10.03;4.80;;;;;;;23.52;56.55;99541.70;123754;1099;104287;-80
2023/07/02 05:35:22;;;;;;;15.67;5.13;;;;;;;23.57;56.29;99541.55;123771;1099;104226;-80
2023/07/02 05:37:53;;;;;;;8.17;4.80;;;;;;;23.64;56.54;99537.76;124013;1099;104235;-79
2023/07/02 05:40:25;;;;;;;8.63;4.70;;;;;;;23.69;56.21;99535.79;124075;1099;104316;-81
2023/07/02 05:42:56;;;;;;;9.73;4.83;;;;;;;23.73;55.94;99540.09;124105;1099;104296;-81
2023/07/02 05:45:28;;;;;;;7.80;4.97;;;;;;;23.76;55.90;99534.63;124123;1099;104366;-80
2023/07/02 05:48:00;;;;;;;9.37;4.77;;;;;;;23.82;55.86;99539.78;123982;1099;104354;-79
2023/07/02 05:50:31;;;;;;;8.30;4.70;;;;;;;23.89;55.55;99540.50;124224;1099;104265;-80
2023/07/02 05:53:02;;;;;;;6.23;4.33;;;;;;;23.96;55.62;99535.80;124198;1099;104262;-79
2023/07/02 05:55:33;;;;;;;7.27;4.50;;;;;;;24.01;55.15;99533.83;124073;1099;104224;-81
2023/07/02 05:58:05;;;;;;;8.90;4.40;;;;;;;24.07;55.43;99538.10;124155;1099;104296;-81
2023/07/02 06:00:36;;;;;;;5.67;3.90;;;;;;;24.12;55.15;99531.66;123880;1099;104226;-80
2023/07/02 06:03:07;;;;;;;11.77;5.30;;;;;;;24.17;55.12;99526.14;123995;1099;104325;-80
2023/07/02 06:05:38;;;;;;;10.13;5.10;;;;;;;24.25;55.12;99528.52;123742;1099;104419;-81
2023/07/02 06:08:10;;;;;;;9.30;4.40;;;;;;;24.33;55.13;99534.50;124051;1099;104267;-79
2023/07/02 06:10:41;;;;;;;7.63;4.50;;;;;;;24.43;55.00;99533.20;123948;1099;104300;-80
2023/07/02 06:13:12;;;;;;;7.40;4.40;;;;;;;24.48;54.44;99530.36;123892;1099;104307;-80
2023/07/02 06:15:44;;;;;;;8.43;4.43;;;;;;;24.51;54.83;99527.56;123928;1099;104169;-79
2023/07/02 06:18:17;;;;;;;6.07;4.47;;;;;;;24.55;54.40;99530.08;124037;1099;104251;-79
2023/07/02 06:20:49;;;;;;;10.77;4.33;;;;;;;24.62;54.73;99530.78;123651;1099;104213;-79
2023/07/02 06:23:20;;;;;;;8.30;4.57;;;;;;;24.69;54.25;99521.55;123968;1099;104288;-81
2023/07/02 06:25:52;;;;;;;9.00;4.35;;;;;;;24.77;54.52;99526.62;123835;1099;104309;-80
2023/07/02 06:28:24;;;;;;;10.40;4.60;;;;;;;24.83;54.02;99528.20;123972;1099;104243;-79
2023/07/02 06:30:55;;;;;;;8.20;4.57;;;;;;;24.91;53.98;99528.77;123944;1099;104277;-80
2023/07/02 06:33:28;;;;;;;10.43;4.58;;;;;;;25.00;54.01;99530.23;123991;1099;104287;-80
2023/07/02 06:36:00;;;;;;;9.10;4.27;;;;;;;25.05;53.86;99529.09;124052;1099;104262;-80
2023/07/02 06:38:31;;;;;;;8.70;4.20;;;;;;;25.14;53.02;99522.50;124178;1099;104390;-81
2023/07/02 06:41:02;;;;;;;7.30;4.43;;;;;;;25.23;52.97;99521.27;124117;1099;104701;-81
2023/07/02 06:43:34;;;;;;;9.43;4.10;;;;;;;25.30;53.27;99520.96;124078;1098;104290;-80
2023/07/02 06:46:05;;;;;;;8.65;4.10;;;;;;;25.41;52.23;99522.34;123915;1099;104238;-80
2023/07/02 06:48:36;;;;;;;10.03;4.33;;;;;;;25.50;52.20;99516.59;123935;1099;104785;-79
2023/07/02 06:51:08;;;;;;;5.80;3.93;;;;;;;25.61;51.64;99519.70;123973;1099;104505;-79
2023/07/02 06:53:39;;;;;;;8.90;4.30;;;;;;;25.71;52.07;99520.20;123949;1099;104239;-80
2023/07/02 06:56:12;;;;;;;7.35;4.10;;;;;;;25.81;51.92;99521.55;123633;1099;104277;-79
2023/07/02 06:58:44;;;;;;;9.20;4.50;;;;;;;25.93;51.77;99519.26;123932;1099;104351;-80
2023/07/02 07:01:16;;;;;;;8.23;4.07;;;;;;;26.03;51.40;99517.10;124130;1099;104316;-81
2023/07/02 07:03:47;;;;;;;9.07;3.80;;;;;;;26.22;51.27;99509.09;123996;1099;104332;-79
2023/07/02 07:06:18;;;;;;;5.17;3.93;;;;;;;26.38;50.23;99507.44;123879;1099;104274;-78
2023/07/02 07:08:50;;;;;;;6.67;4.20;;;;;;;26.51;50.61;99511.33;123959;1099;104239;-80
2023/07/02 07:11:21;;;;;;;10.37;4.30;;;;;;;26.67;50.30;99505.27;124051;1099;104264;-80
2023/07/02 07:13:53;;;;;;;7.53;3.93;;;;;;;26.84;50.43;99502.66;124015;1099;104418;-80
2023/07/02 07:16:24;;;;;;;7.77;3.87;;;;;;;27.00;49.70;99512.69;124046;1099;104724;-80
2023/07/02 07:18:55;;;;;;;7.93;4.07;;;;;;;27.14;49.58;99509.33;123893;1099;104328;-80
2023/07/02 07:21:26;;;;;;;6.00;3.97;;;;;;;27.32;49.05;99513.00;123989;1098;104252;-78
2023/07/02 07:23:58;;;;;;;8.03;3.87;;;;;;;27.51;48.26;99512.95;124210;1099;104275;-80
2023/07/02 07:26:29;;;;;;;8.87;3.93;;;;;;;27.69;48.25;99503.04;124166;1099;104277;-80
2023/07/02 07:29:00;;;;;;;7.13;4.10;;;;;;;27.85;47.66;99508.54;123958;1099;104161;-80
2023/07/02 07:31:31;;;;;;;7.00;3.70;;;;;;;28.01;47.50;99508.64;124211;1099;104248;-81
2023/07/02 07:34:03;;;;;;;6.23;3.70;;;;;;;28.15;47.67;99496.16;124181;1099;104310;-80
2023/07/02 07:36:34;;;;;;;8.40;4.00;;;;;;;28.41;46.97;99501.13;123998;1099;104351;-79
2023/07/02 07:39:05;;;;;;;5.70;4.03;;;;;;;28.59;45.87;99500.13;124137;1099;104238;-80
2023/07/02 07:41:37;;;;;;;12.75;3.90;;;;;;;28.81;45.77;99497.14;124351;1099;104773;-80
2023/07/02 07:44:08;;;;;;;8.20;3.77;;;;;;;28.99;45.11;99497.92;123876;1099;104300;-78
2023/07/02 07:46:39;;;;;;;7.50;3.80;;;;;;;29.11;44.15;99498.17;124051;1099;104179;-78
2023/07/02 07:49:10;;;;;;;7.10;3.57;;;;;;;29.22;44.09;99501.19;124059;1099;104324;-79
2023/07/02 07:51:42;;;;;;;9.90;3.90;;;;;;;29.33;43.29;99497.86;124151;1098;104293;-78
2023/07/02 07:54:13;;;;;;;6.03;4.13;;;;;;;29.49;42.90;99492.42;124119;1099;104194;-79
2023/07/02 07:56:44;;;;;;;7.90;3.87;;;;;;;29.61;42.58;99494.41;124097;1099;104267;-78
2023/07/02 07:59:15;;;;;;;7.07;3.57;;;;;;;29.71;42.58;99498.28;124074;1099;104201;-80
2023/07/02 08:01:47;;;;;;;9.73;3.83;;;;;;;29.82;41.92;99499.52;124569;1099;104347;-78
2023/07/02 08:04:22;;;;;;;8.80;3.70;;;;;;;29.96;42.28;99499.55;123978;1099;104239;-80
2023/07/02 08:07:00;;;;;;;6.77;3.60;;;;;;;30.17;41.84;99489.27;123851;1098;104326;-80
2023/07/02 08:09:31;;;;;;;5.47;3.80;;;;;;;30.31;41.81;99485.70;124113;1099;104268;-80
2023/07/02 08:12:03;;;;;;;6.90;4.00;;;;;;;30.49;41.35;99486.39;123991;1099;104294;-79
2023/07/02 08:14:35;;;;;;;7.90;3.70;;;;;;;30.71;41.01;99485.89;124133;1099;104402;-80
2023/07/02 08:17:06;;;;;;;7.53;3.70;;;;;;;30.90;41.06;99493.72;124290;1099;104241;-81
2023/07/02 08:19:37;;;;;;;7.17;3.60;;;;;;;31.05;40.56;99489.16;124209;1099;104169;-79
2023/07/02 08:22:09;;;;;;;7.27;3.57;;;;;;;31.26;40.44;99491.41;124325;1099;104313;-80
2023/07/02 08:24:40;;;;;;;6.80;3.47;;;;;;;31.39;39.48;99488.78;124407;1099;104723;-79
2023/07/02 08:27:13;;;;;;;7.77;3.60;;;;;;;31.48;39.05;99493.58;124732;1099;104239;-80
2023/07/02 08:29:58;;;;;;;5.73;3.30;;;;;;;31.60;38.75;99478.34;124490;1099;104266;-77
2023/07/02 08:32:32;;;;;;;5.60;3.80;;;;;;;31.75;38.62;99474.58;123936;1099;104411;-80
2023/07/02 08:35:03;;;;;;;4.87;3.30;;;;;;;31.90;38.20;99483.52;124386;1099;104319;-79
2023/07/02 08:37:35;;;;;;;3.80;3.30;;;;;;;32.10;37.99;99474.03;124047;1099;104306;-78
2023/07/02 08:40:16;;;;;;;6.77;3.53;;;;;;;32.18;37.21;99479.77;124116;1099;104249;-80
2023/07/02 08:42:48;;;;;;;5.90;3.37;;;;;;;32.25;36.92;99477.48;124563;1099;104235;-79
2023/07/02 08:45:21;;;;;;;9.70;4.30;;;;;;;32.38;36.77;99477.47;124263;1099;104166;-79
2023/07/02 08:47:53;;;;;;;;;;;;;;;32.50;34.62;99475.73;123985;1098;104217;-80
2023/07/02 08:50:24;;;;;;;5.05;3.50;;;;;;;32.65;36.04;99474.66;124100;1099;104242;-78
2023/07/02 08:52:56;;;;;;;4.87;3.57;;;;;;;32.70;35.66;99474.33;124188;1099;104187;-79
2023/07/02 08:55:29;;;;;;;5.50;3.40;;;;;;;32.71;35.68;99476.05;124162;1099;104160;-79
2023/07/02 08:58:00;;;;;;;5.85;3.35;;;;;;;32.75;35.51;99474.84;123905;1099;104396;-80
2023/07/02 09:00:36;;;;;;;6.60;3.80;;;;;;;32.90;35.27;99472.87;124169;1099;104264;-78
2023/07/02 09:03:18;;;;;;;7.30;3.60;;;;;;;33.00;33.81;99473.05;123966;1099;104373;-80
2023/07/02 09:05:53;;;;;;;6.13;3.50;;;;;;;33.17;33.70;99469.08;124026;1099;104428;-80
2023/07/02 09:08:29;;;;;;;5.65;3.50;;;;;;;33.18;33.71;99466.27;123625;1098;104184;-79
2023/07/02 09:11:10;;;;;;;6.13;3.30;;;;;;;33.26;33.44;99466.55;123661;1099;104351;-78
2023/07/02 09:13:48;;;;;;;4.65;3.20;;;;;;;33.31;33.41;99472.50;123824;1099;104277;-79
2023/07/02 09:16:28;;;;;;;8.50;3.77;;;;;;;33.37;32.70;99462.17;123953;1099;104235;-78
2023/07/02 09:19:04;;;;;;;9.37;3.60;;;;;;;33.52;32.85;99460.11;124077;1098;104337;-78
2023/07/02 09:21:46;;;;;;;5.03;3.30;;;;;;;33.57;31.90;99464.23;124301;1098;104191;-79
2023/07/02 09:24:20;;;;;;;4.83;3.47;;;;;;;33.54;31.59;99453.59;124152;1099;104261;-77
2023/07/02 09:26:53;;;;;;;6.20;3.20;;;;;;;33.44;31.10;99458.88;124468;1099;104235;-80
2023/07/02 09:29:28;;;;;;;6.77;3.27;;;;;;;33.49;31.09;99458.52;124275;1099;104271;-79
2023/07/02 09:32:02;;;;;;;7.07;3.23;;;;;;;33.56;31.21;99461.63;124395;1099;104281;-81
2023/07/02 09:34:35;;;;;;;8.70;3.45;;;;;;;33.57;30.79;99456.07;124340;1099;104245;-81
2023/07/02 09:37:07;;;;;;;3.77;3.13;;;;;;;33.62;30.68;99448.41;123819;1099;104326;-79
2023/07/02 09:39:39;;;;;;;3.97;3.20;;;;;;;33.69;29.74;99446.11;123811;1099;104348;-79
2023/07/02 09:42:11;;;;;;;5.50;3.30;;;;;;;33.72;30.07;99453.17;123811;1099;104265;-78
2023/07/02 09:44:43;;;;;;;3.42;3.10;;;;;;;33.77;29.43;99450.95;123952;1099;104322;-78
2023/07/02 09:47:18;;;;;;;4.25;3.25;;;;;;;33.88;29.06;99444.67;124018;1099;104338;-79
2023/07/02 09:49:54;;;;;;;6.53;3.17;;;;;;;33.80;28.73;99451.60;123786;1098;104514;-79
2023/07/02 09:52:27;;;;;;;6.85;3.65;;;;;;;33.68;27.15;99447.08;124062;1099;104334;-80
2023/07/02 09:54:59;;;;;;;5.12;3.37;;;;;;;33.64;28.11;99451.02;124001;1099;104268;-79
2023/07/02 09:57:31;;;;;;;3.67;3.20;;;;;;;33.63;27.70;99443.86;124009;1099;104245;-79
2023/07/02 10:00:04;;;;;;;6.13;3.50;;;;;;;33.62;27.50;99442.12;124030;1099;104248;-79
2023/07/02 10:02:38;;;;;;;6.43;3.73;;;;;;;33.67;28.15;99440.78;123945;1099;104401;-78
2023/07/02 10:05:09;;;;;;;7.70;3.77;;;;;;;33.71;28.60;99435.11;123743;1099;104249;-78
2023/07/02 10:07:40;;;;;;;8.33;3.47;;;;;;;33.73;27.98;99434.02;123749;1098;104321;-79
2023/07/02 10:10:12;;;;;;;4.40;3.20;;;;;;;33.82;27.96;99440.61;123869;1099;104165;-80
2023/07/02 10:12:49;;;;;;;5.13;3.37;;;;;;;33.94;27.42;99434.20;123998;1098;104348;-81
2023/07/02 10:15:28;;;;;;;8.63;3.80;;;;;;;34.06;27.08;99426.05;124104;1099;104397;-79
2023/07/02 10:18:02;;;;;;;6.07;3.47;;;;;;;34.13;27.21;99430.02;123929;1099;104273;-79
2023/07/02 10:20:38;;;;;;;6.83;3.43;;;;;;;34.25;26.98;99434.48;123845;1099;105768;-79
2023/07/02 10:23:10;;;;;;;3.43;3.00;;;;;;;34.38;26.75;99435.25;124059;1099;104265;-80
2023/07/02 10:25:41;;;;;;;7.40;3.50;;;;;;;34.37;26.80;99428.06;124034;1099;104265;-80
2023/07/02 10:28:22;;;;;;;6.47;3.60;;;;;;;34.39;26.77;99431.55;124303;1099;104264;-78
2023/07/02 10:30:53;;;;;;;5.40;3.50;;;;;;;34.36;26.68;99434.52;124131;1099;104264;-80
2023/07/02 10:33:24;;;;;;;7.03;3.57;;;;;;;34.32;26.81;99421.27;124061;1099;104341;-79
2023/07/02 10:35:56;;;;;;;9.33;3.83;;;;;;;34.32;27.15;99423.99;124197;1099;104264;-79
2023/07/02 10:38:27;;;;;;;8.23;4.00;;;;;;;34.41;27.09;99419.64;125276;1099;104175;-78
2023/07/02 10:41:00;;;;;;;3.80;3.40;;;;;;;34.43;27.08;99414.95;123774;1099;104430;-79
2023/07/02 10:43:32;;;;;;;6.93;3.30;;;;;;;34.47;27.00;99419.14;123957;1099;104657;-79
2023/07/02 10:46:04;;;;;;;8.97;3.60;;;;;;;34.53;26.96;99418.64;123829;1099;104338;-79
2023/07/02 10:48:36;;;;;;;7.13;3.30;;;;;;;34.44;26.87;99417.56;123750;1099;104261;-76
2023/07/02 10:51:15;;;;;;;5.87;3.30;;;;;;;34.37;26.87;99409.00;123942;1099;104290;-79
2023/07/02 10:53:46;;;;;;;6.30;3.60;;;;;;;34.33;26.92;99410.26;123750;1099;104310;-82
2023/07/02 10:56:20;;;;;;;4.87;3.67;;;;;;;34.33;26.33;99409.38;123884;1099;104357;-80
2023/07/02 10:58:52;;;;;;;5.23;3.40;;;;;;;34.32;26.77;99407.66;123946;1099;104355;-80
2023/07/02 11:01:27;;;;;;;5.70;3.60;;;;;;;34.32;26.39;99404.94;123769;1099;104239;-80
2023/07/02 11:04:04;;;;;;;5.97;3.80;;;;;;;34.28;26.52;99396.12;123908;1099;104338;-82
2023/07/02 11:06:35;;;;;;;5.43;3.53;;;;;;;34.20;26.48;99399.47;124022;1099;104408;-81
2023/07/02 11:09:16;;;;;;;9.73;4.00;;;;;;;34.19;26.11;99402.31;123902;1099;104635;-81
2023/07/02 11:11:54;;;;;;;4.97;3.50;;;;;;;34.20;26.25;99398.58;123502;1099;104214;-81
2023/07/02 11:14:34;;;;;;;6.77;3.43;;;;;;;34.09;25.50;99393.14;123933;1099;104307;-79
2023/07/02 11:17:07;;;;;;;6.77;3.30;;;;;;;34.04;26.03;99396.23;124082;1099;104262;-79
2023/07/02 11:19:39;;;;;;;6.03;3.57;;;;;;;33.95;26.10;99403.26;123721;1099;104406;-78
2023/07/02 11:22:10;;;;;;;6.90;3.70;;;;;;;33.81;25.98;99400.77;123901;1099;105502;-80
2023/07/02 11:24:41;;;;;;;4.80;3.60;;;;;;;33.65;26.06;99404.66;123850;1099;104271;-79
2023/07/02 11:27:23;;;;;;;4.43;3.10;;;;;;;33.56;26.21;99402.66;123893;1099;104194;-81
2023/07/02 11:30:01;;;;;;;6.07;3.73;;;;;;;33.58;26.51;99410.70;123987;1099;104360;-81
2023/07/02 11:32:32;;;;;;;8.15;3.80;;;;;;;33.58;26.50;99408.86;123769;1099;104701;-79
2023/07/02 11:35:04;;;;;;;6.03;3.80;;;;;;;33.57;26.40;99400.83;123762;1099;104725;-81
2023/07/02 11:37:35;;;;;;;4.40;3.20;;;;;;;33.59;26.33;99399.70;123909;1098;104293;-81